sensor_id;sensor_type;location;lat;lon;timestamp;temperature;humidity
30893;DHT22;17595;50.884;4.346;2023-06-10T00:01:36;23.70;99.90
30893;DHT22;17595;50.884;4.346;2023-06-10T00:04:03;23.70;99.90
30893;DHT22;17595;50.884;4.346;2023-06-10T00:06:29;23.60;99.90
30893;DHT22;17595;50.884;4.346;2023-06-10T00:09:04;23.60;99.90
30893;DHT22;17595;50.884;4.346;2023-06-10T00:11:33;23.50;99.90
30893;DHT22;17595;50.884;4.346;2023-06-10T00:13:59;23.50;99.90
30893;DHT22;17595;50.884;4.346;2023-06-10T00:16:25;23.50;99.90
30893;DHT22;17595;50.884;4.346;2023-06-10T00:18:51;23.50;99.90
30893;DHT22;17595;50.884;4.346;2023-06-10T00:21:17;23.30;99.90
30893;DHT22;17595;50.884;4.346;2023-06-10T00:23:44;23.30;99.90
30893;DHT22;17595;50.884;4.346;2023-06-10T00:26:10;23.30;99.90
30893;DHT22;17595;50.884;4.346;2023-06-10T00:28:35;23.30;99.90
30893;DHT22;17595;50.884;4.346;2023-06-10T00:31:01;23.30;99.90
30893;DHT22;17595;50.884;4.346;2023-06-10T00:33:27;23.30;99.90
30893;DHT22;17595;50.884;4.346;2023-06-10T00:35:53;23.30;99.90
30893;DHT22;17595;50.884;4.346;2023-06-10T00:38:19;23.30;99.90
30893;DHT22;17595;50.884;4.346;2023-06-10T00:40:44;23.20;99.90
30893;DHT22;17595;50.884;4.346;2023-06-10T00:43:10;23.20;99.90
30893;DHT22;17595;50.884;4.346;2023-06-10T00:45:36;23.20;99.90
30893;DHT22;17595;50.884;4.346;2023-06-10T00:48:02;23.20;99.90
30893;DHT22;17595;50.884;4.346;2023-06-10T00:50:28;23.20;99.90
30893;DHT22;17595;50.884;4.346;2023-06-10T00:52:56;23.10;99.90
30893;DHT22;17595;50.884;4.346;2023-06-10T00:55:22;23.20;99.90
30893;DHT22;17595;50.884;4.346;2023-06-10T00:57:49;23.10;99.90
30893;DHT22;17595;50.884;4.346;2023-06-10T01:00:15;23.10;99.90
30893;DHT22;17595;50.884;4.346;2023-06-10T01:02:42;23.10;99.90
30893;DHT22;17595;50.884;4.346;2023-06-10T01:05:10;23.10;99.90
30893;DHT22;17595;50.884;4.346;2023-06-10T01:07:43;23.00;99.90
30893;DHT22;17595;50.884;4.346;2023-06-10T01:13:16;22.90;99.90
30893;DHT22;17595;50.884;4.346;2023-06-10T01:15:43;22.90;99.90
30893;DHT22;17595;50.884;4.346;2023-06-10T01:18:10;22.90;99.90
30893;DHT22;17595;50.884;4.346;2023-06-10T01:20:41;22.90;99.90
30893;DHT22;17595;50.884;4.346;2023-06-10T01:23:10;22.90;99.90
30893;DHT22;17595;50.884;4.346;2023-06-10T01:25:46;22.90;99.90
30893;DHT22;17595;50.884;4.346;2023-06-10T01:28:18;22.80;99.90
30893;DHT22;17595;50.884;4.346;2023-06-10T01:33:14;22.80;99.90
30893;DHT22;17595;50.884;4.346;2023-06-10T01:35:41;22.70;99.90
30893;DHT22;17595;50.884;4.346;2023-06-10T01:38:08;22.70;99.90
30893;DHT22;17595;50.884;4.346;2023-06-10T01:40:35;22.70;99.90
30893;DHT22;17595;50.884;4.346;2023-06-10T01:43:01;22.70;99.90
30893;DHT22;17595;50.884;4.346;2023-06-10T01:45:27;22.60;99.90
30893;DHT22;17595;50.884;4.346;2023-06-10T01:47:53;22.70;99.90
30893;DHT22;17595;50.884;4.346;2023-06-10T01:50:18;22.60;99.90
30893;DHT22;17595;50.884;4.346;2023-06-10T01:52:45;22.60;99.90
30893;DHT22;17595;50.884;4.346;2023-06-10T01:55:12;22.60;99.90
30893;DHT22;17595;50.884;4.346;2023-06-10T01:57:37;22.50;99.90
30893;DHT22;17595;50.884;4.346;2023-06-10T02:00:03;22.50;99.90
30893;DHT22;17595;50.884;4.346;2023-06-10T02:02:29;22.50;99.90
30893;DHT22;17595;50.884;4.346;2023-06-10T02:04:54;22.50;99.90
30893;DHT22;17595;50.884;4.346;2023-06-10T02:07:20;22.50;99.90
30893;DHT22;17595;50.884;4.346;2023-06-10T02:09:46;22.40;99.90
30893;DHT22;17595;50.884;4.346;2023-06-10T02:12:11;22.40;99.90
30893;DHT22;17595;50.884;4.346;2023-06-10T02:14:37;22.40;99.90
30893;DHT22;17595;50.884;4.346;2023-06-10T02:17:03;22.30;99.90
30893;DHT22;17595;50.884;4.346;2023-06-10T02:19:29;22.30;99.90
30893;DHT22;17595;50.884;4.346;2023-06-10T02:21:56;22.30;99.90
30893;DHT22;17595;50.884;4.346;2023-06-10T02:24:22;22.30;99.90
30893;DHT22;17595;50.884;4.346;2023-06-10T02:26:48;22.20;99.90
30893;DHT22;17595;50.884;4.346;2023-06-10T02:29:14;22.30;99.90
30893;DHT22;17595;50.884;4.346;2023-06-10T02:31:39;22.20;99.90
30893;DHT22;17595;50.884;4.346;2023-06-10T02:34:06;22.20;99.90
30893;DHT22;17595;50.884;4.346;2023-06-10T02:36:31;22.20;99.90
30893;DHT22;17595;50.884;4.346;2023-06-10T02:38:57;22.20;99.90
30893;DHT22;17595;50.884;4.346;2023-06-10T02:41:23;22.10;99.90
30893;DHT22;17595;50.884;4.346;2023-06-10T02:43:50;22.10;99.90
30893;DHT22;17595;50.884;4.346;2023-06-10T02:46:15;22.00;99.90
30893;DHT22;17595;50.884;4.346;2023-06-10T02:48:42;22.00;99.90
30893;DHT22;17595;50.884;4.346;2023-06-10T02:51:09;22.00;99.90
30893;DHT22;17595;50.884;4.346;2023-06-10T02:53:35;22.00;99.90
30893;DHT22;17595;50.884;4.346;2023-06-10T02:56:01;22.00;99.90
30893;DHT22;17595;50.884;4.346;2023-06-10T02:58:27;21.90;99.90
30893;DHT22;17595;50.884;4.346;2023-06-10T03:00:53;21.90;99.90
30893;DHT22;17595;50.884;4.346;2023-06-10T03:03:18;21.90;99.90
30893;DHT22;17595;50.884;4.346;2023-06-10T03:05:44;21.90;99.90
30893;DHT22;17595;50.884;4.346;2023-06-10T03:08:10;21.90;99.90
30893;DHT22;17595;50.884;4.346;2023-06-10T03:10:35;21.90;99.90
30893;DHT22;17595;50.884;4.346;2023-06-10T03:13:01;21.90;99.90
30893;DHT22;17595;50.884;4.346;2023-06-10T03:15:27;21.90;99.90
30893;DHT22;17595;50.884;4.346;2023-06-10T03:17:54;21.90;99.90
30893;DHT22;17595;50.884;4.346;2023-06-10T03:20:20;21.90;99.90
30893;DHT22;17595;50.884;4.346;2023-06-10T03:22:47;21.80;99.90
30893;DHT22;17595;50.884;4.346;2023-06-10T03:25:12;21.80;99.90
30893;DHT22;17595;50.884;4.346;2023-06-10T03:27:41;21.80;99.90
30893;DHT22;17595;50.884;4.346;2023-06-10T03:30:07;21.80;99.90
30893;DHT22;17595;50.884;4.346;2023-06-10T03:32:34;21.80;99.90
30893;DHT22;17595;50.884;4.346;2023-06-10T03:35:01;21.80;99.90
30893;DHT22;17595;50.884;4.346;2023-06-10T03:37:26;21.80;99.90
30893;DHT22;17595;50.884;4.346;2023-06-10T03:39:52;21.70;99.90
30893;DHT22;17595;50.884;4.346;2023-06-10T03:42:17;21.70;99.90
30893;DHT22;17595;50.884;4.346;2023-06-10T03:44:43;21.70;99.90
30893;DHT22;17595;50.884;4.346;2023-06-10T03:47:09;21.70;99.90
30893;DHT22;17595;50.884;4.346;2023-06-10T03:49:34;21.70;99.90
30893;DHT22;17595;50.884;4.346;2023-06-10T03:52:02;21.80;99.90
30893;DHT22;17595;50.884;4.346;2023-06-10T03:54:27;21.80;99.90
30893;DHT22;17595;50.884;4.346;2023-06-10T03:56:53;21.70;99.90
30893;DHT22;17595;50.884;4.346;2023-06-10T03:59:19;21.70;99.90
30893;DHT22;17595;50.884;4.346;2023-06-10T04:01:44;21.70;99.90
30893;DHT22;17595;50.884;4.346;2023-06-10T04:04:14;21.70;99.90
30893;DHT22;17595;50.884;4.346;2023-06-10T04:06:42;21.70;99.90
30893;DHT22;17595;50.884;4.346;2023-06-10T04:09:09;21.70;99.90
30893;DHT22;17595;50.884;4.346;2023-06-10T04:11:35;21.70;99.90
30893;DHT22;17595;50.884;4.346;2023-06-10T04:14:01;21.70;99.90
30893;DHT22;17595;50.884;4.346;2023-06-10T04:16:27;21.70;99.90
30893;DHT22;17595;50.884;4.346;2023-06-10T04:18:53;21.70;99.90
30893;DHT22;17595;50.884;4.346;2023-06-10T04:21:18;21.70;99.90
30893;DHT22;17595;50.884;4.346;2023-06-10T04:23:44;21.70;99.90
30893;DHT22;17595;50.884;4.346;2023-06-10T04:26:10;21.70;99.90
30893;DHT22;17595;50.884;4.346;2023-06-10T04:28:37;21.60;99.90
30893;DHT22;17595;50.884;4.346;2023-06-10T04:31:03;21.60;99.90
30893;DHT22;17595;50.884;4.346;2023-06-10T04:33:30;21.60;99.90
30893;DHT22;17595;50.884;4.346;2023-06-10T04:35:56;21.50;99.90
30893;DHT22;17595;50.884;4.346;2023-06-10T04:38:21;21.60;99.90
30893;DHT22;17595;50.884;4.346;2023-06-10T04:40:47;21.60;99.90
30893;DHT22;17595;50.884;4.346;2023-06-10T04:43:13;21.70;99.90
30893;DHT22;17595;50.884;4.346;2023-06-10T04:45:39;21.70;99.90
30893;DHT22;17595;50.884;4.346;2023-06-10T04:48:05;21.70;99.90
30893;DHT22;17595;50.884;4.346;2023-06-10T04:50:30;21.70;99.90
30893;DHT22;17595;50.884;4.346;2023-06-10T04:52:58;21.70;99.90
30893;DHT22;17595;50.884;4.346;2023-06-10T04:55:24;21.60;99.90
30893;DHT22;17595;50.884;4.346;2023-06-10T04:57:51;21.70;99.90
30893;DHT22;17595;50.884;4.346;2023-06-10T05:00:17;21.80;99.90
30893;DHT22;17595;50.884;4.346;2023-06-10T05:02:43;21.80;99.90
30893;DHT22;17595;50.884;4.346;2023-06-10T05:05:08;21.90;99.90
30893;DHT22;17595;50.884;4.346;2023-06-10T05:07:34;21.90;99.90
30893;DHT22;17595;50.884;4.346;2023-06-10T05:09:59;21.90;99.90
30893;DHT22;17595;50.884;4.346;2023-06-10T05:12:26;21.90;99.90
30893;DHT22;17595;50.884;4.346;2023-06-10T05:14:51;22.00;99.90
30893;DHT22;17595;50.884;4.346;2023-06-10T05:17:17;22.00;99.90
30893;DHT22;17595;50.884;4.346;2023-06-10T05:19:43;22.10;99.90
30893;DHT22;17595;50.884;4.346;2023-06-10T05:22:09;22.10;99.90
30893;DHT22;17595;50.884;4.346;2023-06-10T05:24:35;22.00;99.90
30893;DHT22;17595;50.884;4.346;2023-06-10T05:27:00;22.10;99.90
30893;DHT22;17595;50.884;4.346;2023-06-10T05:29:26;22.00;99.90
30893;DHT22;17595;50.884;4.346;2023-06-10T05:31:52;22.10;99.90
30893;DHT22;17595;50.884;4.346;2023-06-10T05:34:17;22.10;99.90
30893;DHT22;17595;50.884;4.346;2023-06-10T05:36:43;22.10;99.90
30893;DHT22;17595;50.884;4.346;2023-06-10T05:39:09;22.00;99.90
30893;DHT22;17595;50.884;4.346;2023-06-10T05:41:36;21.90;99.90
30893;DHT22;17595;50.884;4.346;2023-06-10T05:44:01;22.00;99.90
30893;DHT22;17595;50.884;4.346;2023-06-10T05:46:28;22.10;99.90
30893;DHT22;17595;50.884;4.346;2023-06-10T05:48:54;22.20;99.90
30893;DHT22;17595;50.884;4.346;2023-06-10T05:51:19;22.20;99.90
30893;DHT22;17595;50.884;4.346;2023-06-10T05:53:45;22.30;99.90
30893;DHT22;17595;50.884;4.346;2023-06-10T05:56:13;22.50;99.90
30893;DHT22;17595;50.884;4.346;2023-06-10T05:58:38;22.60;99.90
30893;DHT22;17595;50.884;4.346;2023-06-10T06:01:04;22.60;99.90
30893;DHT22;17595;50.884;4.346;2023-06-10T06:03:29;22.80;99.90
30893;DHT22;17595;50.884;4.346;2023-06-10T06:05:55;23.00;99.90
30893;DHT22;17595;50.884;4.346;2023-06-10T06:08:21;22.90;99.90
30893;DHT22;17595;50.884;4.346;2023-06-10T06:10:47;22.90;99.90
30893;DHT22;17595;50.884;4.346;2023-06-10T06:13:15;23.00;99.90
30893;DHT22;17595;50.884;4.346;2023-06-10T06:15:41;23.00;99.90
30893;DHT22;17595;50.884;4.346;2023-06-10T06:18:06;23.20;99.90
30893;DHT22;17595;50.884;4.346;2023-06-10T06:20:32;23.10;99.90
30893;DHT22;17595;50.884;4.346;2023-06-10T06:22:57;23.10;99.90
30893;DHT22;17595;50.884;4.346;2023-06-10T06:25:23;23.30;99.90
30893;DHT22;17595;50.884;4.346;2023-06-10T06:27:49;23.40;99.90
30893;DHT22;17595;50.884;4.346;2023-06-10T06:30:14;23.40;99.90
30893;DHT22;17595;50.884;4.346;2023-06-10T06:32:40;23.40;99.90
30893;DHT22;17595;50.884;4.346;2023-06-10T06:35:06;23.40;99.90
30893;DHT22;17595;50.884;4.346;2023-06-10T06:37:33;23.30;99.90
30893;DHT22;17595;50.884;4.346;2023-06-10T06:39:59;23.30;99.90
30893;DHT22;17595;50.884;4.346;2023-06-10T06:42:25;23.40;99.90
30893;DHT22;17595;50.884;4.346;2023-06-10T06:44:50;23.50;99.90
30893;DHT22;17595;50.884;4.346;2023-06-10T06:47:16;23.70;99.90
30893;DHT22;17595;50.884;4.346;2023-06-10T06:49:46;23.80;99.90
30893;DHT22;17595;50.884;4.346;2023-06-10T06:52:13;23.80;99.90
30893;DHT22;17595;50.884;4.346;2023-06-10T06:54:38;23.80;99.90
30893;DHT22;17595;50.884;4.346;2023-06-10T06:57:04;23.80;99.90
30893;DHT22;17595;50.884;4.346;2023-06-10T06:59:31;23.80;99.90
30893;DHT22;17595;50.884;4.346;2023-06-10T07:01:56;23.60;99.90
30893;DHT22;17595;50.884;4.346;2023-06-10T07:04:22;23.70;99.90
30893;DHT22;17595;50.884;4.346;2023-06-10T07:06:48;23.80;99.90
30893;DHT22;17595;50.884;4.346;2023-06-10T07:09:14;23.70;99.90
30893;DHT22;17595;50.884;4.346;2023-06-10T07:11:39;24.00;99.90
30893;DHT22;17595;50.884;4.346;2023-06-10T07:14:06;23.90;99.90
30893;DHT22;17595;50.884;4.346;2023-06-10T07:16:32;24.10;99.90
30893;DHT22;17595;50.884;4.346;2023-06-10T07:18:57;23.90;99.90
30893;DHT22;17595;50.884;4.346;2023-06-10T07:21:23;23.90;99.90
30893;DHT22;17595;50.884;4.346;2023-06-10T07:23:49;24.00;99.90
30893;DHT22;17595;50.884;4.346;2023-06-10T07:26:17;24.00;99.90
30893;DHT22;17595;50.884;4.346;2023-06-10T07:28:43;24.30;99.90
30893;DHT22;17595;50.884;4.346;2023-06-10T07:31:09;24.30;99.90
30893;DHT22;17595;50.884;4.346;2023-06-10T07:33:34;24.40;99.90
30893;DHT22;17595;50.884;4.346;2023-06-10T07:36:00;24.60;99.90
30893;DHT22;17595;50.884;4.346;2023-06-10T07:38:26;24.70;99.90
30893;DHT22;17595;50.884;4.346;2023-06-10T07:40:52;24.50;99.90
30893;DHT22;17595;50.884;4.346;2023-06-10T07:43:18;24.40;99.90
30893;DHT22;17595;50.884;4.346;2023-06-10T07:45:44;24.70;99.90
30893;DHT22;17595;50.884;4.346;2023-06-10T07:48:09;24.80;99.90
30893;DHT22;17595;50.884;4.346;2023-06-10T07:50:35;24.80;99.90
30893;DHT22;17595;50.884;4.346;2023-06-10T07:53:01;24.70;99.90
30893;DHT22;17595;50.884;4.346;2023-06-10T07:55:26;25.00;99.90
30893;DHT22;17595;50.884;4.346;2023-06-10T07:57:53;24.90;99.90
30893;DHT22;17595;50.884;4.346;2023-06-10T08:00:19;25.40;99.90
30893;DHT22;17595;50.884;4.346;2023-06-10T08:02:46;25.30;99.90
30893;DHT22;17595;50.884;4.346;2023-06-10T08:05:11;25.40;99.90
30893;DHT22;17595;50.884;4.346;2023-06-10T08:07:37;25.30;99.90
30893;DHT22;17595;50.884;4.346;2023-06-10T08:10:05;25.40;99.90
30893;DHT22;17595;50.884;4.346;2023-06-10T08:12:32;25.40;99.90
30893;DHT22;17595;50.884;4.346;2023-06-10T08:14:58;25.00;99.90
30893;DHT22;17595;50.884;4.346;2023-06-10T08:17:23;24.80;99.90
30893;DHT22;17595;50.884;4.346;2023-06-10T08:19:49;24.70;99.90
30893;DHT22;17595;50.884;4.346;2023-06-10T08:22:15;24.80;99.90
30893;DHT22;17595;50.884;4.346;2023-06-10T08:24:40;24.90;99.90
30893;DHT22;17595;50.884;4.346;2023-06-10T08:27:06;25.00;99.90
30893;DHT22;17595;50.884;4.346;2023-06-10T08:29:32;25.10;99.90
30893;DHT22;17595;50.884;4.346;2023-06-10T08:31:57;25.10;99.90
30893;DHT22;17595;50.884;4.346;2023-06-10T08:34:24;25.00;99.90
30893;DHT22;17595;50.884;4.346;2023-06-10T08:36:52;25.00;99.90
30893;DHT22;17595;50.884;4.346;2023-06-10T08:39:21;25.10;99.90
30893;DHT22;17595;50.884;4.346;2023-06-10T08:44:42;25.30;99.90
30893;DHT22;17595;50.884;4.346;2023-06-10T08:47:17;25.30;99.90
30893;DHT22;17595;50.884;4.346;2023-06-10T08:49:44;25.40;99.90
30893;DHT22;17595;50.884;4.346;2023-06-10T08:52:20;25.40;99.90
30893;DHT22;17595;50.884;4.346;2023-06-10T08:54:52;25.60;99.90
30893;DHT22;17595;50.884;4.346;2023-06-10T08:57:18;25.80;99.90
30893;DHT22;17595;50.884;4.346;2023-06-10T08:59:46;25.60;99.90
30893;DHT22;17595;50.884;4.346;2023-06-10T09:02:13;25.40;99.90
30893;DHT22;17595;50.884;4.346;2023-06-10T09:04:42;25.40;99.90
30893;DHT22;17595;50.884;4.346;2023-06-10T09:07:09;25.40;99.90
30893;DHT22;17595;50.884;4.346;2023-06-10T09:09:36;25.30;99.90
30893;DHT22;17595;50.884;4.346;2023-06-10T09:12:02;25.50;99.90
30893;DHT22;17595;50.884;4.346;2023-06-10T09:14:28;25.80;99.90
30893;DHT22;17595;50.884;4.346;2023-06-10T09:16:54;25.60;99.90
30893;DHT22;17595;50.884;4.346;2023-06-10T09:19:23;25.80;99.90
30893;DHT22;17595;50.884;4.346;2023-06-10T09:21:49;26.20;99.90
30893;DHT22;17595;50.884;4.346;2023-06-10T09:24:15;26.20;99.90
30893;DHT22;17595;50.884;4.346;2023-06-10T09:26:42;26.10;99.80
30893;DHT22;17595;50.884;4.346;2023-06-10T09:29:08;26.00;99.90
30893;DHT22;17595;50.884;4.346;2023-06-10T09:31:39;26.20;99.60
30893;DHT22;17595;50.884;4.346;2023-06-10T09:34:14;26.00;99.80
30893;DHT22;17595;50.884;4.346;2023-06-10T09:36:42;25.70;99.90
30893;DHT22;17595;50.884;4.346;2023-06-10T09:39:16;26.00;99.80
30893;DHT22;17595;50.884;4.346;2023-06-10T09:41:44;25.70;99.90
30893;DHT22;17595;50.884;4.346;2023-06-10T09:44:18;25.80;99.90
30893;DHT22;17595;50.884;4.346;2023-06-10T09:46:49;25.70;99.90
30893;DHT22;17595;50.884;4.346;2023-06-10T09:49:18;25.80;99.90
30893;DHT22;17595;50.884;4.346;2023-06-10T09:51:54;25.90;99.50
30893;DHT22;17595;50.884;4.346;2023-06-10T09:54:21;26.20;99.30
30893;DHT22;17595;50.884;4.346;2023-06-10T09:56:51;26.30;99.00
30893;DHT22;17595;50.884;4.346;2023-06-10T09:59:37;26.10;99.00
30893;DHT22;17595;50.884;4.346;2023-06-10T10:02:03;26.80;97.30
30893;DHT22;17595;50.884;4.346;2023-06-10T10:04:30;26.90;97.60
30893;DHT22;17595;50.884;4.346;2023-06-10T10:06:56;26.50;97.50
30893;DHT22;17595;50.884;4.346;2023-06-10T10:09:22;26.70;98.30
30893;DHT22;17595;50.884;4.346;2023-06-10T10:11:48;26.50;98.70
30893;DHT22;17595;50.884;4.346;2023-06-10T10:14:15;26.60;96.90
30893;DHT22;17595;50.884;4.346;2023-06-10T10:16:42;26.70;97.80
30893;DHT22;17595;50.884;4.346;2023-06-10T10:19:13;26.40;97.70
30893;DHT22;17595;50.884;4.346;2023-06-10T10:21:48;26.40;97.10
30893;DHT22;17595;50.884;4.346;2023-06-10T10:24:18;26.40;97.50
30893;DHT22;17595;50.884;4.346;2023-06-10T10:26:46;26.20;97.90
30893;DHT22;17595;50.884;4.346;2023-06-10T10:29:29;26.10;98.30
30893;DHT22;17595;50.884;4.346;2023-06-10T10:31:56;26.20;98.70
30893;DHT22;17595;50.884;4.346;2023-06-10T10:37:09;26.70;95.90
30893;DHT22;17595;50.884;4.346;2023-06-10T10:39:36;26.70;95.30
30893;DHT22;17595;50.884;4.346;2023-06-10T10:42:03;26.90;94.20
30893;DHT22;17595;50.884;4.346;2023-06-10T10:44:31;26.80;94.60
30893;DHT22;17595;50.884;4.346;2023-06-10T10:47:02;27.10;93.40
30893;DHT22;17595;50.884;4.346;2023-06-10T10:49:30;27.20;94.10
30893;DHT22;17595;50.884;4.346;2023-06-10T10:52:00;27.20;93.70
30893;DHT22;17595;50.884;4.346;2023-06-10T10:54:35;27.10;94.50
30893;DHT22;17595;50.884;4.346;2023-06-10T10:59:59;27.30;93.30
30893;DHT22;17595;50.884;4.346;2023-06-10T11:02:39;27.10;94.70
30893;DHT22;17595;50.884;4.346;2023-06-10T11:05:07;26.90;95.30
30893;DHT22;17595;50.884;4.346;2023-06-10T11:07:33;27.20;93.90
30893;DHT22;17595;50.884;4.346;2023-06-10T11:10:10;27.10;93.80
30893;DHT22;17595;50.884;4.346;2023-06-10T11:12:41;26.80;94.90
30893;DHT22;17595;50.884;4.346;2023-06-10T11:15:08;26.90;94.60
30893;DHT22;17595;50.884;4.346;2023-06-10T11:17:33;27.10;93.00
30893;DHT22;17595;50.884;4.346;2023-06-10T11:19:59;27.00;94.00
30893;DHT22;17595;50.884;4.346;2023-06-10T11:22:25;27.10;94.20
30893;DHT22;17595;50.884;4.346;2023-06-10T11:24:51;27.00;90.90
30893;DHT22;17595;50.884;4.346;2023-06-10T11:27:23;27.10;92.00
30893;DHT22;17595;50.884;4.346;2023-06-10T11:29:57;27.20;90.80
30893;DHT22;17595;50.884;4.346;2023-06-10T11:32:25;27.60;91.00
30893;DHT22;17595;50.884;4.346;2023-06-10T11:34:54;27.70;91.30
30893;DHT22;17595;50.884;4.346;2023-06-10T11:37:21;27.40;92.10
30893;DHT22;17595;50.884;4.346;2023-06-10T11:39:46;27.80;92.30
30893;DHT22;17595;50.884;4.346;2023-06-10T11:42:16;27.90;91.30
30893;DHT22;17595;50.884;4.346;2023-06-10T11:44:53;27.80;91.50
30893;DHT22;17595;50.884;4.346;2023-06-10T11:47:20;27.90;91.90
30893;DHT22;17595;50.884;4.346;2023-06-10T11:49:46;28.10;91.90
30893;DHT22;17595;50.884;4.346;2023-06-10T11:52:26;27.90;92.40
30893;DHT22;17595;50.884;4.346;2023-06-10T11:54:55;27.90;90.40
30893;DHT22;17595;50.884;4.346;2023-06-10T11:57:21;27.70;91.00
30893;DHT22;17595;50.884;4.346;2023-06-10T11:59:47;28.00;89.90
30893;DHT22;17595;50.884;4.346;2023-06-10T12:02:16;27.80;91.70
30893;DHT22;17595;50.884;4.346;2023-06-10T12:04:42;27.80;90.70
30893;DHT22;17595;50.884;4.346;2023-06-10T12:07:07;27.80;91.60
30893;DHT22;17595;50.884;4.346;2023-06-10T12:09:33;27.70;91.30
30893;DHT22;17595;50.884;4.346;2023-06-10T12:12:04;27.60;91.10
30893;DHT22;17595;50.884;4.346;2023-06-10T12:14:52;27.80;90.70
30893;DHT22;17595;50.884;4.346;2023-06-10T12:19:55;28.30;91.10
30893;DHT22;17595;50.884;4.346;2023-06-10T12:22:21;28.40;90.20
30893;DHT22;17595;50.884;4.346;2023-06-10T12:25:10;28.70;91.00
30893;DHT22;17595;50.884;4.346;2023-06-10T12:27:37;28.70;91.00
30893;DHT22;17595;50.884;4.346;2023-06-10T12:30:05;28.60;91.50
30893;DHT22;17595;50.884;4.346;2023-06-10T12:32:43;28.60;90.50
30893;DHT22;17595;50.884;4.346;2023-06-10T12:35:11;28.80;91.00
30893;DHT22;17595;50.884;4.346;2023-06-10T12:37:38;29.00;90.90
30893;DHT22;17595;50.884;4.346;2023-06-10T12:40:05;28.80;90.70
30893;DHT22;17595;50.884;4.346;2023-06-10T12:42:35;28.80;91.20
30893;DHT22;17595;50.884;4.346;2023-06-10T12:45:02;29.00;89.80
30893;DHT22;17595;50.884;4.346;2023-06-10T12:47:32;29.00;89.10
30893;DHT22;17595;50.884;4.346;2023-06-10T12:50:00;28.90;90.90
30893;DHT22;17595;50.884;4.346;2023-06-10T12:52:26;29.20;89.90
30893;DHT22;17595;50.884;4.346;2023-06-10T12:54:52;29.30;88.80
30893;DHT22;17595;50.884;4.346;2023-06-10T12:57:18;29.40;88.30
30893;DHT22;17595;50.884;4.346;2023-06-10T12:59:43;29.20;89.60
30893;DHT22;17595;50.884;4.346;2023-06-10T13:02:16;28.80;91.10
30893;DHT22;17595;50.884;4.346;2023-06-10T13:04:43;29.00;90.10
30893;DHT22;17595;50.884;4.346;2023-06-10T13:07:09;29.00;90.80
30893;DHT22;17595;50.884;4.346;2023-06-10T13:09:36;28.80;90.80
30893;DHT22;17595;50.884;4.346;2023-06-10T13:12:02;28.50;91.50
30893;DHT22;17595;50.884;4.346;2023-06-10T13:14:28;28.80;89.80
30893;DHT22;17595;50.884;4.346;2023-06-10T13:16:54;28.90;90.10
30893;DHT22;17595;50.884;4.346;2023-06-10T13:19:20;29.10;88.60
30893;DHT22;17595;50.884;4.346;2023-06-10T13:21:49;29.10;91.20
30893;DHT22;17595;50.884;4.346;2023-06-10T13:24:15;29.10;89.60
30893;DHT22;17595;50.884;4.346;2023-06-10T13:26:40;29.10;89.70
30893;DHT22;17595;50.884;4.346;2023-06-10T13:29:06;29.10;88.20
30893;DHT22;17595;50.884;4.346;2023-06-10T13:31:33;29.20;89.70
30893;DHT22;17595;50.884;4.346;2023-06-10T13:33:59;29.10;91.00
30893;DHT22;17595;50.884;4.346;2023-06-10T13:36:25;28.90;91.10
30893;DHT22;17595;50.884;4.346;2023-06-10T13:38:50;28.90;91.40
30893;DHT22;17595;50.884;4.346;2023-06-10T13:41:16;29.00;91.70
30893;DHT22;17595;50.884;4.346;2023-06-10T13:43:42;28.90;90.70
30893;DHT22;17595;50.884;4.346;2023-06-10T13:46:07;29.10;91.20
30893;DHT22;17595;50.884;4.346;2023-06-10T13:48:33;29.40;90.50
30893;DHT22;17595;50.884;4.346;2023-06-10T13:50:59;29.40;88.20
30893;DHT22;17595;50.884;4.346;2023-06-10T13:53:25;29.70;87.40
30893;DHT22;17595;50.884;4.346;2023-06-10T13:55:51;29.50;89.40
30893;DHT22;17595;50.884;4.346;2023-06-10T13:58:16;29.60;88.40
30893;DHT22;17595;50.884;4.346;2023-06-10T14:00:42;29.30;89.90
30893;DHT22;17595;50.884;4.346;2023-06-10T14:03:08;29.60;85.40
30893;DHT22;17595;50.884;4.346;2023-06-10T14:05:33;29.50;85.10
30893;DHT22;17595;50.884;4.346;2023-06-10T14:07:59;29.50;85.40
30893;DHT22;17595;50.884;4.346;2023-06-10T14:10:25;29.50;86.40
30893;DHT22;17595;50.884;4.346;2023-06-10T14:12:51;29.20;88.80
30893;DHT22;17595;50.884;4.346;2023-06-10T14:15:16;29.10;88.30
30893;DHT22;17595;50.884;4.346;2023-06-10T14:17:42;29.50;87.60
30893;DHT22;17595;50.884;4.346;2023-06-10T14:20:08;29.50;86.00
30893;DHT22;17595;50.884;4.346;2023-06-10T14:22:34;29.50;89.30
30893;DHT22;17595;50.884;4.346;2023-06-10T14:24:59;29.60;88.20
30893;DHT22;17595;50.884;4.346;2023-06-10T14:27:25;29.40;90.20
30893;DHT22;17595;50.884;4.346;2023-06-10T14:29:51;29.40;86.10
30893;DHT22;17595;50.884;4.346;2023-06-10T14:32:16;29.20;87.50
30893;DHT22;17595;50.884;4.346;2023-06-10T14:34:42;29.00;90.60
30893;DHT22;17595;50.884;4.346;2023-06-10T14:37:10;29.20;90.20
30893;DHT22;17595;50.884;4.346;2023-06-10T14:39:35;29.70;89.00
30893;DHT22;17595;50.884;4.346;2023-06-10T14:42:01;29.70;89.10
30893;DHT22;17595;50.884;4.346;2023-06-10T14:44:28;29.60;89.00
30893;DHT22;17595;50.884;4.346;2023-06-10T14:46:54;29.60;90.20
30893;DHT22;17595;50.884;4.346;2023-06-10T14:49:20;29.50;87.70
30893;DHT22;17595;50.884;4.346;2023-06-10T14:51:46;29.10;86.80
30893;DHT22;17595;50.884;4.346;2023-06-10T14:54:11;29.00;90.40
30893;DHT22;17595;50.884;4.346;2023-06-10T14:56:37;29.10;90.60
30893;DHT22;17595;50.884;4.346;2023-06-10T14:59:02;29.60;87.60
30893;DHT22;17595;50.884;4.346;2023-06-10T15:01:28;30.10;85.80
30893;DHT22;17595;50.884;4.346;2023-06-10T15:03:53;30.40;84.60
30893;DHT22;17595;50.884;4.346;2023-06-10T15:06:19;30.50;83.70
30893;DHT22;17595;50.884;4.346;2023-06-10T15:08:48;30.20;86.70
30893;DHT22;17595;50.884;4.346;2023-06-10T15:11:16;29.90;87.40
30893;DHT22;17595;50.884;4.346;2023-06-10T15:13:42;29.90;86.20
30893;DHT22;17595;50.884;4.346;2023-06-10T15:16:07;30.00;86.50
30893;DHT22;17595;50.884;4.346;2023-06-10T15:18:33;29.70;84.00
30893;DHT22;17595;50.884;4.346;2023-06-10T15:20:59;29.60;88.60
30893;DHT22;17595;50.884;4.346;2023-06-10T15:23:24;29.70;88.70
30893;DHT22;17595;50.884;4.346;2023-06-10T15:25:50;29.70;88.70
30893;DHT22;17595;50.884;4.346;2023-06-10T15:28:16;29.70;89.40
30893;DHT22;17595;50.884;4.346;2023-06-10T15:30:41;30.10;85.00
30893;DHT22;17595;50.884;4.346;2023-06-10T15:33:07;29.90;84.90
30893;DHT22;17595;50.884;4.346;2023-06-10T15:35:33;29.60;88.10
30893;DHT22;17595;50.884;4.346;2023-06-10T15:37:59;29.60;88.10
30893;DHT22;17595;50.884;4.346;2023-06-10T15:40:25;29.50;87.40
30893;DHT22;17595;50.884;4.346;2023-06-10T15:42:51;29.60;87.90
30893;DHT22;17595;50.884;4.346;2023-06-10T15:45:17;29.80;88.30